createdAt,value
2023-01-13T00:00:34.946Z,13.38
2023-01-13T00:05:40.101Z,13.43
2023-01-13T00:10:48.972Z,9.57
2023-01-13T00:15:57.529Z,27.60
2023-01-13T00:21:04.006Z,33.27
2023-01-13T00:26:11.726Z,25.20
2023-01-13T00:31:17.922Z,13.23
2023-01-13T00:36:22.365Z,16.98
2023-01-13T00:41:31.469Z,26.20
2023-01-13T00:46:35.783Z,18.17
2023-01-13T00:51:39.871Z,10.60
2023-01-13T00:56:45.619Z,11.38
2023-01-13T01:01:49.779Z,11.45
2023-01-13T01:06:54.087Z,15.73
2023-01-13T01:11:59.915Z,13.35
2023-01-13T01:17:03.976Z,32.17
2023-01-13T01:22:08.012Z,30.13
2023-01-13T01:27:13.356Z,31.55
2023-01-13T01:32:17.477Z,24.60
2023-01-13T01:37:21.452Z,30.00
2023-01-13T01:42:44.670Z,46.67
2023-01-13T01:47:51.468Z,35.70
2023-01-13T01:53:01.054Z,27.52
2023-01-13T01:58:11.927Z,22.95
2023-01-13T02:03:17.497Z,26.35
2023-01-13T02:08:24.116Z,23.55
2023-01-13T02:13:31.301Z,26.73
2023-01-13T02:18:50.150Z,28.65
2023-01-13T02:24:49.911Z,26.80
2023-01-13T02:30:22.831Z,24.80
2023-01-13T02:35:31.587Z,14.80
2023-01-13T02:40:41.884Z,18.63
2023-01-13T02:45:53.170Z,20.38
2023-01-13T02:51:01.525Z,24.88
2023-01-13T02:56:07.639Z,23.67
2023-01-13T03:01:13.174Z,32.10
2023-01-13T03:06:33.153Z,22.20
2023-01-13T03:11:45.874Z,28.30
2023-01-13T03:17:06.512Z,20.27
2023-01-13T03:22:22.461Z,30.83
2023-01-13T03:27:31.341Z,31.48
2023-01-13T03:32:41.830Z,34.42
2023-01-13T03:37:53.087Z,16.90
2023-01-13T03:43:19.901Z,15.00
2023-01-13T03:48:28.949Z,10.25
2023-01-13T03:53:36.918Z,9.90
2023-01-13T03:58:44.522Z,7.25
2023-01-13T04:03:58.619Z,103.40
2023-01-13T04:09:15.379Z,28.67
2023-01-13T04:14:22.612Z,17.77
2023-01-13T04:19:28.662Z,18.67
2023-01-13T04:24:33.637Z,22.70
2023-01-13T04:29:37.627Z,26.80
2023-01-13T04:34:43.879Z,32.90
2023-01-13T04:39:48.158Z,50.20
2023-01-13T04:44:52.415Z,56.13
2023-01-13T04:49:58.166Z,52.10
2023-01-13T04:55:02.275Z,66.97
2023-01-13T05:00:08.636Z,90.63
2023-01-13T05:05:13.978Z,106.80
2023-01-13T05:10:20.075Z,74.80
2023-01-13T05:15:42.334Z,64.53
2023-01-13T05:20:47.958Z,103.35
2023-01-13T05:25:52.051Z,129.88
2023-01-13T05:30:56.304Z,93.13
2023-01-13T05:36:03.486Z,56.38
2023-01-13T05:41:25.162Z,40.97
2023-01-13T05:46:29.345Z,38.28
2023-01-13T05:51:34.963Z,28.50
2023-01-13T05:56:39.188Z,82.90
2023-01-13T06:01:43.243Z,76.78
2023-01-13T06:06:49.059Z,60.53
2023-01-13T06:11:53.632Z,64.20
2023-01-13T06:16:57.551Z,57.28
2023-01-13T06:22:09.797Z,43.92
2023-01-13T06:27:14.684Z,47.75
2023-01-13T06:32:22.105Z,64.65
2023-01-13T06:37:29.866Z,60.63
2023-01-13T06:42:55.539Z,68.03
2023-01-13T06:48:00.932Z,64.00
2023-01-13T06:53:06.498Z,54.33
2023-01-13T06:58:11.247Z,40.25
2023-01-13T07:03:18.642Z,43.03
2023-01-13T07:08:25.489Z,46.75
2023-01-13T07:13:58.726Z,44.85
2023-01-13T07:19:02.787Z,42.67
2023-01-13T07:24:08.888Z,39.33
2023-01-13T07:29:13.852Z,39.15
2023-01-13T07:34:19.339Z,34.65
2023-01-13T07:39:24.841Z,36.92
2023-01-13T07:44:29.073Z,36.22
2023-01-13T07:49:33.351Z,33.30
2023-01-13T07:54:41.214Z,31.02
2023-01-13T07:59:45.913Z,33.70
2023-01-13T08:04:50.263Z,51.67
2023-01-13T08:09:55.792Z,37.25
2023-01-13T08:14:59.909Z,17.20
2023-01-13T08:20:04.210Z,23.27
2023-01-13T08:25:10.351Z,25.50
2023-01-13T08:30:14.776Z,18.40
2023-01-13T08:35:19.847Z,27.05
2023-01-13T08:40:26.877Z,15.60
2023-01-13T08:45:31.042Z,23.70
2023-01-13T08:50:35.740Z,16.98
2023-01-13T08:55:42.983Z,16.85
2023-01-13T09:00:47.298Z,14.88
2023-01-13T09:05:51.267Z,17.05
2023-01-13T09:10:56.782Z,18.80
2023-01-13T09:16:01.240Z,38.90
2023-01-13T09:21:06.350Z,23.83
2023-01-13T09:26:12.927Z,26.42
2023-01-13T09:31:17.170Z,11.68
2023-01-13T09:36:21.513Z,7.93
2023-01-13T09:41:46.757Z,9.82
2023-01-13T09:46:55.185Z,21.25
2023-01-13T09:52:09.292Z,12.85
2023-01-13T09:57:17.218Z,17.48
2023-01-13T10:02:36.507Z,11.50
2023-01-13T10:07:49.584Z,13.90
2023-01-13T10:13:12.890Z,13.48
2023-01-13T10:18:24.411Z,16.58
2023-01-13T10:23:42.190Z,11.57
2023-01-13T10:28:54.285Z,14.43
2023-01-13T10:34:04.336Z,11.23
2023-01-13T10:39:11.271Z,17.13
2023-01-13T10:44:18.855Z,23.45
2023-01-13T10:49:36.454Z,15.20
2023-01-13T10:54:53.909Z,17.08
2023-01-13T10:59:59.807Z,13.30
2023-01-13T11:05:17.915Z,12.77
2023-01-13T11:10:24.781Z,15.63
2023-01-13T11:15:40.821Z,19.13
2023-01-13T11:20:47.818Z,12.48
2023-01-13T11:25:57.802Z,4.82
2023-01-13T11:31:12.842Z,6.10
2023-01-13T11:36:21.504Z,10.00
2023-01-13T11:41:33.410Z,4.37
2023-01-13T11:46:47.649Z,10.50
2023-01-13T11:51:59.164Z,14.10
2023-01-13T11:57:34.841Z,8.30
2023-01-13T12:02:54.438Z,15.30
2023-01-13T12:08:11.142Z,6.35
2023-01-13T12:13:26.894Z,10.70
2023-01-13T12:19:25.639Z,9.98
2023-01-13T12:24:34.569Z,42.75
2023-01-13T12:29:40.306Z,15.25
2023-01-13T12:34:59.233Z,6.57
2023-01-13T12:40:16.964Z,13.97
2023-01-13T12:45:43.908Z,9.32
2023-01-13T12:51:01.836Z,7.30
2023-01-13T12:56:43.324Z,9.70
2023-01-13T13:01:49.698Z,9.45
2023-01-13T13:07:08.691Z,7.78
2023-01-13T13:13:10.573Z,14.20
2023-01-13T13:18:30.833Z,10.93
2023-01-13T13:24:00.597Z,8.48
2023-01-13T13:29:30.007Z,10.38
2023-01-13T13:34:41.410Z,14.50
2023-01-13T13:40:04.774Z,9.73
2023-01-13T13:45:34.930Z,17.45
2023-01-13T13:50:48.774Z,5.72
2023-01-13T13:56:00.050Z,19.83
2023-01-13T14:01:06.423Z,20.20
2023-01-13T14:06:24.378Z,14.00
2023-01-13T14:11:36.424Z,33.65
2023-01-13T14:16:41.989Z,12.82
2023-01-13T14:21:50.173Z,11.25
2023-01-13T14:27:09.255Z,38.58
2023-01-13T14:32:19.307Z,32.20
2023-01-13T14:37:36.568Z,15.13
2023-01-13T14:42:43.744Z,9.07
2023-01-13T14:47:53.803Z,10.80
2023-01-13T14:53:00.815Z,16.70
2023-01-13T14:58:29.910Z,28.17
2023-01-13T15:03:42.676Z,18.02
2023-01-13T15:08:47.106Z,30.02
2023-01-13T15:13:58.883Z,15.10
2023-01-13T15:19:03.446Z,22.77
2023-01-13T15:24:08.705Z,13.63
2023-01-13T15:29:17.431Z,68.10
2023-01-13T15:34:23.525Z,55.40
2023-01-13T15:39:27.797Z,41.55
2023-01-13T15:44:50.794Z,32.58
2023-01-13T15:49:55.935Z,41.08
2023-01-13T15:55:00.292Z,35.58
2023-01-13T16:00:14.383Z,49.50
2023-01-13T16:05:18.880Z,53.03
2023-01-13T16:10:25.954Z,50.38
2023-01-13T16:15:31.523Z,33.85
2023-01-13T16:20:37.027Z,33.72
2023-01-13T16:25:43.145Z,32.55
2023-01-13T16:30:49.887Z,28.40
2023-01-13T16:36:09.793Z,14.68
2023-01-13T16:41:16.835Z,19.52
2023-01-13T16:46:29.935Z,21.67
2023-01-13T16:51:34.765Z,11.75
2023-01-13T16:56:40.893Z,20.55
2023-01-13T17:01:47.295Z,50.35
2023-01-13T17:06:58.396Z,46.47
2023-01-13T17:12:03.600Z,66.45
2023-01-13T17:17:21.313Z,55.25
2023-01-13T17:22:26.824Z,64.78
2023-01-13T17:27:31.145Z,74.82
2023-01-13T17:32:36.979Z,30.60
2023-01-13T17:37:41.195Z,26.85
2023-01-13T17:42:45.508Z,20.17
2023-01-13T17:47:51.088Z,21.42
2023-01-13T17:52:55.500Z,19.75
2023-01-13T17:57:59.862Z,27.35
2023-01-13T18:03:05.707Z,30.92
2023-01-13T18:08:10.706Z,26.35
2023-01-13T18:13:14.883Z,20.75
2023-01-13T18:18:20.797Z,34.90
2023-01-13T18:23:43.060Z,35.38
2023-01-13T18:28:47.215Z,60.92
2023-01-13T18:33:55.783Z,52.83
2023-01-13T18:39:00.133Z,49.67
2023-01-13T18:44:04.664Z,21.73
2023-01-13T18:49:10.850Z,24.10
2023-01-13T18:54:15.195Z,29.27
2023-01-13T18:59:20.866Z,56.88
2023-01-13T19:04:26.599Z,55.45
2023-01-13T19:09:33.653Z,42.40
2023-01-13T19:14:38.618Z,58.70
2023-01-13T19:19:46.956Z,70.47
2023-01-13T19:24:54.060Z,27.80
2023-01-13T19:30:01.111Z,24.23
2023-01-13T19:35:13.241Z,20.35
2023-01-13T19:40:18.268Z,34.40
2023-01-13T19:45:30.798Z,78.85
2023-01-13T19:50:42.316Z,79.03
2023-01-13T19:55:48.733Z,62.78
2023-01-13T20:00:57.197Z,64.97
2023-01-13T20:06:09.508Z,89.63
2023-01-13T20:11:31.295Z,67.05
2023-01-13T20:16:35.946Z,58.10
2023-01-13T20:21:45.261Z,50.00
2023-01-13T20:26:50.966Z,44.97
2023-01-13T20:31:56.226Z,39.63
2023-01-13T20:37:01.904Z,42.70
2023-01-13T20:42:38.162Z,44.33
2023-01-13T20:47:42.795Z,52.83
2023-01-13T20:52:49.883Z,48.92
2023-01-13T20:57:54.055Z,46.85
2023-01-13T21:02:59.777Z,70.68
2023-01-13T21:08:05.805Z,65.30
2023-01-13T21:13:31.282Z,50.63
2023-01-13T21:18:54.533Z,46.72
2023-01-13T21:24:05.044Z,30.33
2023-01-13T21:29:12.663Z,25.85
2023-01-13T21:34:19.543Z,23.70
2023-01-13T21:39:26.218Z,16.73
2023-01-13T21:44:48.883Z,28.08
2023-01-13T21:49:54.585Z,31.42
2023-01-13T21:55:21.604Z,26.35
2023-01-13T22:00:27.572Z,18.95
2023-01-13T22:05:32.080Z,23.70
2023-01-13T22:10:57.455Z,19.77
2023-01-13T22:16:05.267Z,29.65
2023-01-13T22:21:10.144Z,32.55
2023-01-13T22:26:16.029Z,28.83
2023-01-13T22:31:23.862Z,26.92
2023-01-13T22:36:27.997Z,20.13
2023-01-13T22:41:33.434Z,23.50
2023-01-13T22:46:37.694Z,20.70
2023-01-13T22:51:42.417Z,15.98
2023-01-13T22:56:48.394Z,26.80
2023-01-13T23:01:52.374Z,23.95
2023-01-13T23:06:56.451Z,20.58
2023-01-13T23:12:02.218Z,19.35
2023-01-13T23:17:07.190Z,16.70
2023-01-13T23:22:13.184Z,20.17
2023-01-13T23:27:18.708Z,14.57
2023-01-13T23:32:22.712Z,18.80
2023-01-13T23:37:27.881Z,50.53
2023-01-13T23:42:33.435Z,53.25
2023-01-13T23:47:37.481Z,44.35
2023-01-13T23:52:41.682Z,36.05
2023-01-13T23:57:47.161Z,31.40
